Time;durP1;ratioP1;P1;durP2;ratioP2;P2;SDS_P1;SDS_P2;PMS_P1;PMS_P2;Temp;Humidity;BMP_temperature;BMP_pressure;BME280_temperature;BME280_humidity;BME280_pressure;Samples;Min_cycle;Max_cycle;Signal;HPM_P1;HPM_P2
2022/02/25 00:01:31;;;;;;;11.02;4.38;;;;;;;4.78;61.05;99591.72;5136586;27;20050;-71
2022/02/25 00:04:00;;;;;;;10.73;4.30;;;;;;;4.65;61.28;99598.19;5136438;27;20039;-71
2022/02/25 00:06:29;;;;;;;11.47;4.57;;;;;;;4.54;62.08;99598.78;5136471;27;20039;-71
2022/02/25 00:08:58;;;;;;;12.30;5.03;;;;;;;4.34;62.27;99597.50;5136435;27;20051;-71
2022/02/25 00:11:29;;;;;;;11.02;4.75;;;;;;;4.39;62.58;99590.91;5136363;27;20039;-71
2022/02/25 00:13:58;;;;;;;12.98;4.97;;;;;;;4.29;63.11;99604.13;5136353;27;20144;-71
2022/02/25 00:16:27;;;;;;;9.32;4.70;;;;;;;4.12;63.15;99595.31;5136473;27;20510;-71
2022/02/25 00:18:56;;;;;;;11.02;4.35;;;;;;;4.01;63.55;99588.31;5135024;27;20043;-71
2022/02/25 00:21:25;;;;;;;7.47;4.10;;;;;;;4.02;64.06;99602.66;5136486;27;20043;-71
2022/02/25 00:23:54;;;;;;;8.77;4.00;;;;;;;4.10;64.50;99612.09;5136062;27;20096;-72
2022/02/25 00:26:22;;;;;;;14.23;4.93;;;;;;;4.07;64.01;99618.78;5136009;27;20047;-71
2022/02/25 00:28:53;;;;;;;6.97;3.40;;;;;;;4.11;64.15;99606.22;5136090;27;20043;-71
2022/02/25 00:31:22;;;;;;;8.73;4.07;;;;;;;4.08;64.37;99605.31;5136188;27;20054;-71
2022/02/25 00:33:51;;;;;;;7.17;3.87;;;;;;;3.95;64.35;99595.78;5135905;27;20076;-71
2022/02/25 00:36:20;;;;;;;11.23;3.97;;;;;;;4.06;64.67;99612.03;5135805;27;20042;-71
2022/02/25 00:38:51;;;;;;;10.70;3.80;;;;;;;4.04;64.43;99597.66;5136220;27;20430;-71
2022/02/25 00:41:20;;;;;;;12.80;4.90;;;;;;;3.97;64.04;99581.50;5134604;27;20070;-71
2022/02/25 00:43:49;;;;;;;10.83;4.17;;;;;;;3.91;64.41;99571.25;5135617;27;20084;-71
2022/02/25 00:46:19;;;;;;;9.63;4.63;;;;;;;3.53;65.16;99544.22;5135672;27;20047;-71
2022/02/25 00:48:49;;;;;;;12.77;4.47;;;;;;;3.68;65.27;99572.38;5136074;27;20051;-72
2022/02/25 00:51:19;;;;;;;16.52;4.75;;;;;;;3.59;65.10;99582.25;5134711;27;20047;-71
2022/02/25 00:53:48;;;;;;;11.05;4.10;;;;;;;3.37;65.96;99569.91;5135516;27;20534;-71
2022/02/25 00:56:17;;;;;;;8.95;4.40;;;;;;;3.49;65.92;99539.06;5135386;27;20039;-71
2022/02/25 00:58:46;;;;;;;6.67;3.27;;;;;;;3.45;66.16;99548.25;5136040;27;20071;-70
2022/02/25 01:01:15;;;;;;;11.57;4.65;;;;;;;3.31;65.82;99579.84;5135336;27;20032;-71
2022/02/25 01:03:46;;;;;;;9.60;4.68;;;;;;;3.10;66.57;99574.19;5135255;27;20039;-71
2022/02/25 01:06:15;;;;;;;11.25;4.55;;;;;;;3.19;66.58;99584.56;5135632;27;20071;-70
2022/02/25 01:08:44;;;;;;;;;;;;;;;2.94;66.71;99585.53;5136258;27;20510;-71
2022/02/25 01:11:13;;;;;;;10.95;4.15;;;;;;;2.99;67.81;99594.09;5133981;27;19927;-71
2022/02/25 01:13:42;;;;;;;11.07;4.75;;;;;;;3.16;67.80;99594.56;5135447;27;20047;-71
2022/02/25 01:16:11;;;;;;;12.90;4.77;;;;;;;3.21;67.66;99572.84;5135085;27;20039;-71
2022/02/25 01:18:40;;;;;;;11.07;4.70;;;;;;;3.06;67.33;99595.09;5135107;27;20035;-71
2022/02/25 01:21:11;;;;;;;9.13;3.80;;;;;;;3.02;67.22;99591.66;5135016;27;20039;-71
2022/02/25 01:23:40;;;;;;;9.68;3.88;;;;;;;2.98;67.44;99599.06;5134981;27;20043;-70
2022/02/25 01:26:10;;;;;;;9.13;3.43;;;;;;;3.03;67.43;99602.56;5134943;27;20035;-71
2022/02/25 01:28:40;;;;;;;8.60;3.65;;;;;;;3.04;67.08;99585.00;5134872;27;20311;-71
2022/02/25 01:31:10;;;;;;;11.50;3.53;;;;;;;2.93;67.90;99585.50;5134876;27;20039;-71
2022/02/25 01:33:39;;;;;;;6.68;3.40;;;;;;;2.94;67.94;99577.13;5134828;27;20267;-71
2022/02/25 01:36:07;;;;;;;8.30;3.90;;;;;;;2.89;68.06;99579.53;5134822;27;20043;-70
2022/02/25 01:38:38;;;;;;;10.70;3.45;;;;;;;2.91;68.72;99577.03;5134732;27;20045;-71
2022/02/25 01:41:07;;;;;;;7.68;3.20;;;;;;;3.03;67.95;99569.81;5134732;27;20051;-71
2022/02/25 01:43:36;;;;;;;7.07;3.17;;;;;;;2.88;67.93;99566.88;5134618;27;20047;-71
2022/02/25 01:46:05;;;;;;;11.07;4.05;;;;;;;2.95;68.00;99573.81;5135045;27;20035;-71
2022/02/25 01:48:34;;;;;;;8.65;4.20;;;;;;;2.81;68.42;99565.84;5134619;27;20058;-70
2022/02/25 01:51:05;;;;;;;8.32;3.50;;;;;;;2.90;68.43;99572.81;5134647;27;20524;-71
2022/02/25 01:53:34;;;;;;;8.70;3.60;;;;;;;2.95;68.40;99583.88;5134390;27;20077;-71
2022/02/25 01:56:05;;;;;;;6.70;2.78;;;;;;;3.00;68.78;99585.69;5134595;27;20035;-71
2022/02/25 01:58:34;;;;;;;8.07;3.53;;;;;;;3.10;68.92;99581.75;5134839;28;20221;-71
2022/02/25 02:01:03;;;;;;;10.32;3.42;;;;;;;2.90;68.96;99581.25;5134557;28;20040;-71
2022/02/25 02:03:32;;;;;;;;;;;;;;;2.96;68.47;99570.44;5135190;27;20043;-71
2022/02/25 02:06:01;;;;;;;8.98;3.40;;;;;;;2.92;68.31;99573.72;5134520;27;19920;-71
2022/02/25 02:08:30;;;;;;;8.17;3.30;;;;;;;2.87;69.18;99565.16;5134488;27;20063;-72
2022/02/25 02:10:59;;;;;;;8.47;3.10;;;;;;;2.97;68.91;99564.63;5134378;27;20035;-71
2022/02/25 02:13:29;;;;;;;9.50;3.37;;;;;;;2.89;68.96;99543.38;5134437;27;20048;-71
2022/02/25 02:15:58;;;;;;;7.60;3.25;;;;;;;2.66;68.85;99546.09;5134701;28;20066;-71
2022/02/25 02:18:27;;;;;;;7.22;3.38;;;;;;;2.61;69.26;99545.16;5134960;27;20044;-71
2022/02/25 02:20:56;;;;;;;7.50;3.60;;;;;;;2.75;69.65;99544.66;5134600;27;20062;-71
2022/02/25 02:23:26;;;;;;;9.38;4.03;;;;;;;2.79;69.45;99541.41;5134308;28;20073;-72
2022/02/25 02:25:57;;;;;;;13.73;4.28;;;;;;;2.72;69.98;99546.28;5135113;27;20089;-71
2022/02/25 02:28:27;;;;;;;9.47;3.83;;;;;;;2.72;69.71;99560.56;5134265;27;20040;-71
2022/02/25 02:30:58;;;;;;;8.77;3.78;;;;;;;2.92;69.41;99578.75;5134189;27;20050;-71
2022/02/25 02:33:28;;;;;;;7.47;3.25;;;;;;;2.90;69.97;99585.41;5134542;27;20073;-71
2022/02/25 02:35:56;;;;;;;7.43;2.90;;;;;;;2.85;69.09;99586.94;5134457;28;20504;-70
2022/02/25 02:38:27;;;;;;;8.85;3.75;;;;;;;2.80;69.61;99593.53;5134123;28;20062;-71
2022/02/25 02:40:56;;;;;;;10.57;4.03;;;;;;;2.80;69.51;99588.50;5133885;27;20051;-71
2022/02/25 02:43:25;;;;;;;7.07;3.80;;;;;;;2.89;69.41;99584.56;5134432;28;20043;-71
2022/02/25 02:45:54;;;;;;;10.63;4.10;;;;;;;2.84;69.40;99585.22;5134313;27;20768;-71
2022/02/25 02:48:24;;;;;;;7.05;3.78;;;;;;;2.62;69.83;99574.56;5134062;28;20051;-71
2022/02/25 02:50:53;;;;;;;8.43;3.58;;;;;;;2.52;69.22;99577.59;5134254;27;20539;-71
2022/02/25 02:53:23;;;;;;;8.45;4.22;;;;;;;2.32;69.25;99578.69;5134075;28;20063;-71
2022/02/25 02:55:54;;;;;;;11.65;4.47;;;;;;;2.32;70.10;99576.19;5133978;28;20496;-71
2022/02/25 02:58:23;;;;;;;10.52;4.20;;;;;;;2.35;69.74;99586.31;5134440;27;20069;-71
2022/02/25 03:00:53;;;;;;;14.82;5.03;;;;;;;2.27;70.15;99585.25;5134164;28;20058;-71
2022/02/25 03:03:23;;;;;;;11.75;4.13;;;;;;;2.27;69.98;99584.41;5134245;28;20057;-71
2022/02/25 03:05:53;;;;;;;8.43;4.15;;;;;;;2.44;70.30;99583.25;5137007;27;20418;-70
2022/02/25 03:08:21;;;;;;;8.80;4.37;;;;;;;2.37;70.66;99589.78;5137858;27;20460;-71
2022/02/25 03:10:51;;;;;;;11.30;4.03;;;;;;;2.24;69.93;99595.22;5137415;27;20123;-71
2022/02/25 03:13:21;;;;;;;;;;;;;;;2.10;70.09;99591.44;5138202;27;20400;-71
2022/02/25 03:15:50;;;;;;;7.57;3.42;;;;;;;1.99;70.44;99587.75;5138146;27;19926;-71
2022/02/25 03:18:19;;;;;;;6.57;3.03;;;;;;;1.93;70.93;99574.94;5137936;27;20047;-71
2022/02/25 03:20:48;;;;;;;9.55;4.13;;;;;;;2.13;71.20;99575.56;5137342;27;20291;-71
2022/02/25 03:23:17;;;;;;;11.93;4.70;;;;;;;2.27;70.44;99592.81;5136282;27;20043;-71
2022/02/25 03:25:46;;;;;;;10.77;4.25;;;;;;;2.34;70.18;99592.19;5137190;27;20322;-71
2022/02/25 03:28:15;;;;;;;9.07;3.93;;;;;;;2.33;70.42;99594.63;5137212;27;20039;-70
2022/02/25 03:30:46;;;;;;;7.75;3.92;;;;;;;2.22;70.82;99601.03;5137539;27;20126;-71
2022/02/25 03:33:16;;;;;;;11.98;4.18;;;;;;;2.09;70.96;99589.72;5137130;27;20060;-70
2022/02/25 03:35:45;;;;;;;4.68;2.85;;;;;;;1.98;71.41;99586.00;5137120;27;20043;-71
2022/02/25 03:38:14;;;;;;;9.37;4.37;;;;;;;2.00;70.94;99586.91;5137334;27;20063;-71
2022/02/25 03:40:43;;;;;;;11.00;4.10;;;;;;;1.57;70.60;99607.31;5136723;27;20362;-70
2022/02/25 03:43:12;;;;;;;8.37;4.00;;;;;;;1.45;71.79;99606.03;5137239;27;20484;-70
2022/02/25 03:45:41;;;;;;;8.50;4.07;;;;;;;1.83;71.42;99595.59;5136872;27;20043;-71
2022/02/25 03:48:11;;;;;;;12.55;4.65;;;;;;;1.95;71.13;99588.44;5136823;27;20050;-71
2022/02/25 03:50:40;;;;;;;6.68;3.92;;;;;;;1.89;71.62;99575.66;5137182;27;20078;-71
2022/02/25 03:53:09;;;;;;;9.25;3.90;;;;;;;1.52;71.73;99577.78;5136716;27;20035;-71
2022/02/25 03:55:38;;;;;;;10.23;3.63;;;;;;;1.52;72.44;99587.84;5136846;27;20047;-71
2022/02/25 03:58:07;;;;;;;8.57;3.60;;;;;;;1.85;71.95;99588.94;5136970;27;20043;-71
2022/02/25 04:00:36;;;;;;;12.10;5.73;;;;;;;1.99;71.91;99593.59;5136732;27;20050;-71
2022/02/25 04:03:05;;;;;;;11.30;5.60;;;;;;;1.91;72.19;99594.19;5135385;27;20114;-71
2022/02/25 04:05:36;;;;;;;10.20;4.85;;;;;;;1.75;71.94;99599.53;5136428;27;20035;-71
2022/02/25 04:08:05;;;;;;;7.88;3.90;;;;;;;1.41;72.06;99604.22;5136834;27;20046;-71
2022/02/25 04:10:35;;;;;;;9.00;4.22;;;;;;;1.48;72.51;99596.94;5135214;27;20130;-71
2022/02/25 04:13:04;;;;;;;;;;;;;;;1.48;72.14;99591.06;5136742;27;20122;-70
2022/02/25 04:15:33;;;;;;;7.47;3.65;;;;;;;1.53;72.60;99577.00;5136593;27;19942;-70
2022/02/25 04:18:03;;;;;;;8.40;4.03;;;;;;;1.69;73.15;99564.97;5136225;27;20047;-70
2022/02/25 04:20:32;;;;;;;8.23;4.30;;;;;;;1.90;73.03;99579.88;5135213;27;20519;-71
2022/02/25 04:23:03;;;;;;;9.80;4.45;;;;;;;1.81;72.35;99604.75;5136371;27;20515;-70
2022/02/25 04:25:32;;;;;;;10.40;3.80;;;;;;;1.59;72.64;99610.72;5136039;27;20077;-70
2022/02/25 04:28:02;;;;;;;7.22;3.60;;;;;;;1.58;72.89;99613.19;5136459;27;20043;-71
2022/02/25 04:30:33;;;;;;;6.78;3.30;;;;;;;1.29;72.37;99619.75;5136095;27;20485;-71
2022/02/25 04:33:02;;;;;;;6.85;3.53;;;;;;;1.17;73.26;99617.69;5134705;27;20450;-71
2022/02/25 04:35:31;;;;;;;8.98;3.63;;;;;;;1.23;73.42;99612.84;5135890;27;20039;-71
2022/02/25 04:38:00;;;;;;;11.20;4.10;;;;;;;1.34;73.04;99619.09;5135823;27;20039;-70
2022/02/25 04:40:30;;;;;;;11.77;4.53;;;;;;;1.49;72.65;99628.00;5135564;27;20050;-70
2022/02/25 04:43:01;;;;;;;11.07;3.47;;;;;;;1.47;73.42;99634.59;5136067;27;20496;-71
2022/02/25 04:45:30;;;;;;;8.13;4.35;;;;;;;1.54;72.98;99621.44;5135545;27;20500;-71
2022/02/25 04:47:59;;;;;;;9.23;4.15;;;;;;;1.62;73.33;99627.56;5135907;27;20369;-70
2022/02/25 04:50:28;;;;;;;12.47;4.23;;;;;;;1.72;73.11;99642.19;5135829;27;20381;-70
2022/02/25 04:52:56;;;;;;;12.15;4.85;;;;;;;1.86;73.22;99636.81;5135550;27;20315;-71
2022/02/25 04:55:25;;;;;;;9.17;4.27;;;;;;;1.89;72.75;99626.84;5134446;27;20510;-71
2022/02/25 04:57:57;;;;;;;;;;;;;;;1.69;71.89;99634.53;5135864;27;20054;-70
2022/02/25 05:00:25;;;;;;;9.43;3.58;;;;;;;1.40;72.25;99632.69;5135841;27;19962;-70
2022/02/25 05:02:54;;;;;;;8.87;3.70;;;;;;;1.60;72.36;99647.66;5135388;27;20039;-71
2022/02/25 05:05:23;;;;;;;7.17;3.77;;;;;;;1.26;72.42;99643.13;5135184;27;20298;-70
2022/02/25 05:07:53;;;;;;;13.77;5.53;;;;;;;1.05;72.72;99656.56;5135298;27;20051;-71
2022/02/25 05:10:22;;;;;;;14.60;4.55;;;;;;;1.17;72.86;99667.94;5135215;27;20053;-71
2022/02/25 05:12:51;;;;;;;8.85;4.35;;;;;;;1.06;73.15;99675.84;5135193;27;20044;-70
2022/02/25 05:20:38;;;;;;;14.07;6.40;;;;;;;1.53;72.82;99665.00;5135100;27;20134;-70
2022/02/25 05:23:07;;;;;;;13.60;5.15;;;;;;;1.54;72.58;99686.81;5135326;27;20099;-70
2022/02/25 05:25:37;;;;;;;7.73;4.57;;;;;;;1.51;72.99;99686.72;5135109;27;20036;-70
2022/02/25 05:28:07;;;;;;;11.85;4.80;;;;;;;1.64;73.02;99684.66;5134797;27;20267;-70
2022/02/25 05:30:38;;;;;;;;;;;;;;;1.77;73.53;99691.00;5135258;27;20096;-70
2022/02/25 05:33:07;;;;;;;9.77;4.20;;;;;;;1.70;73.11;99694.09;5134916;27;19919;-70
2022/02/25 05:35:36;;;;;;;15.27;5.13;;;;;;;1.63;73.60;99697.22;5133601;27;20047;-71
2022/02/25 05:38:06;;;;;;;10.23;4.95;;;;;;;1.70;73.77;99709.19;5134814;27;20082;-70
2022/02/25 05:40:35;;;;;;;11.88;4.80;;;;;;;1.86;73.10;99716.44;5134602;27;20075;-70
2022/02/25 05:43:04;;;;;;;7.78;4.25;;;;;;;1.64;73.65;99724.06;5134749;27;20040;-70
2022/02/25 05:45:33;;;;;;;7.38;3.85;;;;;;;1.56;73.45;99726.28;5134892;27;20515;-70
2022/02/25 05:48:04;;;;;;;9.80;4.43;;;;;;;1.50;73.30;99725.22;5134666;27;20043;-70
2022/02/25 05:50:33;;;;;;;8.95;4.00;;;;;;;1.63;73.17;99747.50;5135007;27;20047;-71
2022/02/25 05:53:02;;;;;;;7.47;3.13;;;;;;;1.64;73.59;99759.25;5134641;27;20042;-70
2022/02/25 05:55:31;;;;;;;9.50;3.88;;;;;;;1.69;73.58;99772.88;5134536;27;20043;-71
2022/02/25 05:58:03;;;;;;;6.07;3.30;;;;;;;1.50;73.67;99775.53;5135133;27;20384;-70
2022/02/25 06:00:38;;;;;;;9.70;3.72;;;;;;;1.56;74.17;99766.53;5134916;27;20095;-71
2022/02/25 06:03:09;;;;;;;10.65;4.75;;;;;;;1.42;73.92;99777.75;5135373;27;20047;-70
2022/02/25 06:05:38;;;;;;;10.68;4.50;;;;;;;1.51;74.07;99772.22;5135073;28;20078;-70
2022/02/25 06:08:08;;;;;;;9.95;4.25;;;;;;;1.66;74.30;99782.81;5133533;28;20039;-71
2022/02/25 06:10:37;;;;;;;7.35;3.78;;;;;;;1.68;74.46;99796.31;5134755;27;20056;-70
2022/02/25 06:13:06;;;;;;;7.57;4.00;;;;;;;1.66;74.53;99797.91;5134411;27;20043;-70
2022/02/25 06:15:34;;;;;;;11.32;4.35;;;;;;;1.82;74.63;99792.63;5134379;27;20043;-70
2022/02/25 06:18:03;;;;;;;8.37;3.83;;;;;;;1.92;73.97;99797.19;5134635;27;20058;-70
2022/02/25 06:20:34;;;;;;;7.95;3.20;;;;;;;1.92;73.70;99802.22;5134366;27;20070;-70
2022/02/25 06:23:04;;;;;;;8.35;4.18;;;;;;;1.59;73.87;99785.91;5134591;27;20054;-70
2022/02/25 06:25:32;;;;;;;10.25;4.78;;;;;;;1.70;73.98;99804.78;5134260;27;20050;-70
2022/02/25 06:28:04;;;;;;;9.52;5.78;;;;;;;1.96;74.55;99819.13;5134515;27;20130;-70
2022/02/25 06:30:33;;;;;;;7.22;3.72;;;;;;;1.99;74.10;99824.28;5134220;28;20039;-71
2022/02/25 06:33:05;;;;;;;14.00;5.55;;;;;;;2.05;74.25;99842.09;5134831;28;20455;-70
2022/02/25 06:35:35;;;;;;;13.05;5.90;;;;;;;2.07;74.24;99837.97;5134365;28;20050;-70
2022/02/25 06:38:06;;;;;;;11.77;5.80;;;;;;;2.03;73.61;99841.19;5134190;28;20061;-71
2022/02/25 06:40:35;;;;;;;12.57;5.47;;;;;;;1.95;74.07;99837.53;5136311;27;20075;-70
2022/02/25 06:43:04;;;;;;;11.38;5.00;;;;;;;1.96;74.12;99844.31;5137969;27;20396;-70
2022/02/25 06:45:32;;;;;;;12.23;5.97;;;;;;;1.78;73.29;99852.03;5137621;27;20036;-70
2022/02/25 06:48:02;;;;;;;9.85;5.45;;;;;;;1.91;73.89;99850.81;5137753;27;20058;-71
2022/02/25 06:50:30;;;;;;;13.03;4.70;;;;;;;1.87;73.94;99864.09;5137835;27;20039;-70
2022/02/25 06:53:01;;;;;;;9.77;4.80;;;;;;;1.98;74.09;99863.69;5138160;27;20100;-70
2022/02/25 06:55:30;;;;;;;10.23;5.22;;;;;;;2.17;73.90;99860.16;5137815;27;20480;-71
2022/02/25 06:58:03;;;;;;;8.65;4.88;;;;;;;2.18;nan;99856.84;5137573;27;20039;-70
2022/02/25 07:00:33;;;;;;;8.82;5.80;;;;;;;2.36;73.64;99859.13;5136518;27;20068;-71
2022/02/25 07:03:02;;;;;;;9.85;5.03;;;;;;;2.34;73.60;99864.13;5137543;27;20050;-71
2022/02/25 07:05:32;;;;;;;;;;;;;;;2.45;73.39;99872.03;5138461;27;20043;-71
2022/02/25 07:08:04;;;;;;;9.52;4.35;;;;;;;2.64;73.16;99884.44;5137530;27;19923;-71
2022/02/25 07:10:35;;;;;;;8.70;5.03;;;;;;;2.78;73.04;99883.25;5137933;27;20043;-71
2022/02/25 07:13:06;;;;;;;9.73;4.85;;;;;;;2.63;73.41;99878.56;5137497;27;20039;-71
2022/02/25 07:15:36;;;;;;;14.48;5.72;;;;;;;2.69;73.14;99872.84;5137550;27;20101;-71
2022/02/25 07:18:05;;;;;;;10.50;5.32;;;;;;;2.69;72.85;99863.66;5137387;27;20392;-71
2022/02/25 07:20:34;;;;;;;15.55;5.50;;;;;;;2.98;72.88;99901.53;5136397;27;20035;-71
2022/02/25 07:23:05;;;;;;;11.90;5.40;;;;;;;3.22;72.83;99895.63;5137629;27;20049;-71
2022/02/25 07:25:34;;;;;;;10.43;5.10;;;;;;;3.28;71.68;99892.44;5137313;27;20046;-71
2022/02/25 07:28:04;;;;;;;8.37;4.43;;;;;;;3.26;71.46;99894.06;5137188;27;20043;-71
2022/02/25 07:30:33;;;;;;;14.52;6.57;;;;;;;3.30;71.67;99891.69;5137256;27;20043;-70
2022/02/25 07:33:02;;;;;;;10.20;5.53;;;;;;;3.17;71.88;99888.72;5137093;27;20047;-70
2022/02/25 07:35:31;;;;;;;15.90;6.53;;;;;;;2.85;71.85;99833.91;5137514;27;20055;-70
2022/02/25 07:38:01;;;;;;;12.10;5.80;;;;;;;3.17;71.33;99891.25;5136005;27;20096;-70
2022/02/25 07:40:31;;;;;;;18.23;6.20;;;;;;;3.05;71.58;99903.44;5135626;27;20075;-70
2022/02/25 07:43:00;;;;;;;10.73;5.50;;;;;;;3.43;71.55;99902.16;5137269;27;20480;-71
2022/02/25 07:45:29;;;;;;;12.07;6.07;;;;;;;3.58;71.83;99912.72;5137137;27;20047;-71
2022/02/25 07:47:58;;;;;;;13.07;5.55;;;;;;;3.82;72.09;99903.34;5137298;27;20370;-71
2022/02/25 07:50:27;;;;;;;11.30;6.05;;;;;;;3.81;71.80;99907.56;5135436;27;20108;-70
2022/02/25 07:52:56;;;;;;;13.52;6.40;;;;;;;3.78;71.38;99910.00;5136698;27;20039;-70
2022/02/25 07:55:30;;;;;;;10.45;5.53;;;;;;;3.96;71.24;99920.63;5136996;27;20035;-71
2022/02/25 07:58:00;;;;;;;11.88;5.38;;;;;;;3.97;70.88;99919.81;5136538;27;20108;-71
2022/02/25 08:00:30;;;;;;;12.05;5.65;;;;;;;3.99;72.38;99922.38;5133781;27;20067;-71
2022/02/25 08:03:01;;;;;;;11.30;5.35;;;;;;;4.15;71.73;99926.22;5129830;27;20047;-71
2022/02/25 08:05:32;;;;;;;11.95;4.72;;;;;;;4.18;72.14;99919.56;5136553;27;20488;-70
2022/02/25 08:08:03;;;;;;;14.48;4.97;;;;;;;4.47;71.62;99933.00;5136595;27;20122;-71
2022/02/25 08:10:32;;;;;;;10.43;4.28;;;;;;;4.58;71.21;99922.38;5129916;27;20042;-71
2022/02/25 08:13:05;;;;;;;8.20;3.75;;;;;;;4.79;70.91;99911.13;5135419;27;20035;-71
2022/02/25 08:15:34;;;;;;;9.38;3.50;;;;;;;5.16;70.19;99926.41;5136298;27;20047;-71
2022/02/25 08:18:04;;;;;;;5.00;2.63;;;;;;;5.47;69.62;99916.19;5134638;27;20500;-70
2022/02/25 08:20:36;;;;;;;7.25;2.67;;;;;;;5.69;68.73;99887.13;5132959;27;20048;-71
2022/02/25 08:23:06;;;;;;;6.55;2.60;;;;;;;6.17;67.63;99928.75;5136818;27;20043;-71
2022/02/25 08:25:36;;;;;;;;;;;;;;;6.37;67.25;99932.56;5136553;27;20043;-71
2022/02/25 08:28:09;;;;;;;6.50;2.90;;;;;;;6.51;65.89;99935.34;5133658;27;19923;-70
2022/02/25 08:30:39;;;;;;;6.13;2.53;;;;;;;6.39;65.68;99935.97;5136047;27;20047;-72
2022/02/25 08:33:08;;;;;;;5.68;2.67;;;;;;;6.31;65.51;99936.66;5134079;27;20092;-72
2022/02/25 08:35:37;;;;;;;4.90;2.17;;;;;;;6.30;65.08;99945.94;5119847;27;20081;-71
2022/02/25 08:38:07;;;;;;;6.33;2.83;;;;;;;6.37;65.19;99947.75;5115566;28;20043;-71
2022/02/25 08:40:38;;;;;;;7.47;2.88;;;;;;;6.46;65.20;99953.00;5115258;28;20291;-71
2022/02/25 08:43:09;;;;;;;5.05;2.42;;;;;;;6.54;64.73;99951.50;5115158;28;20047;-71
2022/02/25 08:45:41;;;;;;;6.32;2.80;;;;;;;6.67;64.82;99958.50;5115220;28;20039;-71
2022/02/25 08:48:11;;;;;;;7.07;3.10;;;;;;;6.79;64.80;99959.56;5133254;27;20092;-71
2022/02/25 08:50:41;;;;;;;4.45;2.30;;;;;;;6.83;65.22;99959.66;5136330;27;20436;-71
2022/02/25 08:53:10;;;;;;;6.25;2.92;;;;;;;6.84;64.84;99965.59;5135787;27;20130;-71
2022/02/25 08:55:41;;;;;;;5.43;2.47;;;;;;;6.93;64.63;99966.59;5132326;27;20063;-72
2022/02/25 08:58:11;;;;;;;5.37;2.90;;;;;;;7.07;65.01;99964.31;5124001;27;20044;-72
2022/02/25 09:00:42;;;;;;;3.70;2.03;;;;;;;7.26;64.06;99973.94;5114846;28;20158;-71
2022/02/25 09:03:11;;;;;;;3.28;2.00;;;;;;;7.32;64.08;99967.28;5113029;28;20051;-71
2022/02/25 09:05:41;;;;;;;5.30;2.35;;;;;;;7.39;64.13;99968.22;5114659;28;20043;-71
2022/02/25 09:08:10;;;;;;;4.67;2.33;;;;;;;7.48;63.27;99960.78;5114629;28;20040;-71
2022/02/25 09:10:41;;;;;;;5.00;2.42;;;;;;;7.58;62.94;99949.94;5114903;28;20497;-71
2022/02/25 09:13:12;;;;;;;4.35;1.98;;;;;;;7.78;62.89;99973.94;5120713;27;20043;-71
2022/02/25 09:15:41;;;;;;;5.20;2.47;;;;;;;7.81;62.25;99971.47;5131504;27;20138;-71
2022/02/25 09:18:12;;;;;;;7.78;2.80;;;;;;;7.85;61.48;99985.91;5133688;27;20046;-71
2022/02/25 09:20:43;;;;;;;4.22;2.05;;;;;;;7.82;60.71;99977.41;5135096;27;20047;-71
2022/02/25 09:23:12;;;;;;;6.10;1.92;;;;;;;7.84;60.78;99984.22;5135391;27;20039;-72
2022/02/25 09:25:41;;;;;;;6.20;3.30;;;;;;;7.87;60.74;99984.25;5135048;27;20395;-71
2022/02/25 09:28:12;;;;;;;4.07;2.13;;;;;;;7.89;59.73;99982.56;5134942;27;20600;-71
2022/02/25 09:30:42;;;;;;;5.40;2.30;;;;;;;8.49;58.98;99981.75;5134900;27;20220;-71
2022/02/25 09:33:11;;;;;;;5.00;2.50;;;;;;;9.12;58.58;99982.44;5134861;27;20043;-71
2022/02/25 09:35:40;;;;;;;3.65;1.90;;;;;;;9.42;58.11;99982.75;5131501;27;20040;-71
2022/02/25 09:38:09;;;;;;;6.10;1.97;;;;;;;9.55;56.52;99972.66;5123102;27;20044;-71
2022/02/25 09:40:39;;;;;;;3.55;1.90;;;;;;;10.06;56.09;99973.00;5128344;27;20043;-71
2022/02/25 09:43:08;;;;;;;;;;;;;;;10.52;55.05;99976.69;5131132;27;20439;-71
2022/02/25 09:45:39;;;;;;;4.17;1.97;;;;;;;10.84;54.57;99987.00;5117366;27;19954;-71
2022/02/25 09:48:11;;;;;;;4.18;1.75;;;;;;;10.84;53.04;99976.78;5125934;27;20300;-71
2022/02/25 09:50:42;;;;;;;3.38;1.50;;;;;;;10.30;52.54;99978.28;5113924;28;20062;-71
2022/02/25 09:53:11;;;;;;;4.30;1.75;;;;;;;10.42;52.03;99983.44;5113515;28;20044;-71
2022/02/25 09:55:40;;;;;;;3.78;1.83;;;;;;;10.41;51.38;99971.53;5113791;28;20132;-72
2022/02/25 09:58:09;;;;;;;2.47;1.30;;;;;;;10.43;50.92;99985.16;5114001;28;20071;-71
2022/02/25 10:00:40;;;;;;;2.80;1.70;;;;;;;10.62;49.95;99981.84;5113901;28;20047;-71
2022/02/25 10:03:14;;;;;;;6.10;1.42;;;;;;;10.39;49.65;99993.63;5114096;28;20048;-72
2022/02/25 10:05:44;;;;;;;3.67;1.60;;;;;;;10.18;49.02;99916.13;5114297;28;20055;-71
2022/02/25 10:08:15;;;;;;;3.28;1.55;;;;;;;10.23;49.26;99981.63;5114058;28;20093;-71
2022/02/25 10:10:48;;;;;;;2.92;1.30;;;;;;;10.51;47.32;99973.25;5114250;28;20044;-72
2022/02/25 10:13:19;;;;;;;3.42;1.60;;;;;;;9.73;47.71;99901.44;5114274;28;20039;-71
2022/02/25 10:15:52;;;;;;;2.63;1.17;;;;;;;9.80;47.67;99984.72;5118144;28;20047;-72
2022/02/25 10:18:25;;;;;;;3.63;1.40;;;;;;;9.90;48.02;99977.16;5118390;28;20071;-71
2022/02/25 10:21:01;;;;;;;3.33;1.27;;;;;;;10.66;46.78;99978.44;5117992;28;20052;-71
2022/02/25 10:23:33;;;;;;;4.53;1.55;;;;;;;10.93;46.46;99984.47;5118000;28;20040;-72
2022/02/25 10:26:13;;;;;;;4.13;1.80;;;;;;;10.83;45.66;99990.41;5134056;27;20051;-71
2022/02/25 10:28:45;;;;;;;1.90;1.00;;;;;;;10.36;45.87;99993.63;5135952;27;20063;-72
2022/02/25 10:31:21;;;;;;;1.80;0.90;;;;;;;10.14;45.92;99981.59;5138604;27;20062;-72
2022/02/25 10:34:02;;;;;;;1.95;1.00;;;;;;;10.24;45.45;99991.00;5131476;27;20046;-71
2022/02/25 10:36:44;;;;;;;1.80;1.10;;;;;;;10.38;45.86;99986.84;5138189;27;20047;-71
2022/02/25 10:39:19;;;;;;;0.95;0.70;;;;;;;10.28;45.07;99979.97;5137252;27;20392;-71
2022/02/25 10:42:00;;;;;;;2.15;0.98;;;;;;;9.79;45.74;99998.34;5137006;27;20040;-72
2022/02/25 10:44:42;;;;;;;1.58;0.88;;;;;;;9.44;46.31;99990.38;5137497;27;20509;-71
2022/02/25 10:47:16;;;;;;;2.03;0.93;;;;;;;9.12;46.19;99996.84;5133908;27;20492;-72
2022/02/25 10:49:45;;;;;;;2.67;1.10;;;;;;;8.80;46.40;99988.91;5137711;27;20532;-72
2022/02/25 10:52:21;;;;;;;4.15;1.40;;;;;;;9.92;45.34;99977.16;5137370;27;20043;-72
2022/02/25 10:54:50;;;;;;;1.45;0.90;;;;;;;10.89;43.91;99975.13;5134847;27;20039;-72
2022/02/25 10:57:25;;;;;;;1.48;0.80;;;;;;;11.52;43.11;99962.41;5137542;27;20087;-72
2022/02/25 10:59:56;;;;;;;1.33;0.90;;;;;;;12.06;42.42;99959.84;5136662;27;20051;-72
2022/02/25 11:02:35;;;;;;;1.73;0.98;;;;;;;12.10;40.88;99943.63;5131344;27;20463;-72
2022/02/25 11:05:08;;;;;;;1.17;0.90;;;;;;;11.97;40.53;99948.78;5119237;27;20096;-72
2022/02/25 11:07:40;;;;;;;2.10;1.00;;;;;;;11.91;40.81;99953.88;5126726;27;20047;-72
2022/02/25 11:10:11;;;;;;;2.17;1.08;;;;;;;12.25;39.98;99954.66;5137744;27;20392;-72
2022/02/25 11:12:42;;;;;;;2.95;1.13;;;;;;;12.29;39.40;99953.78;5137581;27;20040;-72
2022/02/25 11:15:13;;;;;;;1.90;1.20;;;;;;;12.73;38.59;99939.09;5135868;27;20051;-71
2022/02/25 11:17:45;;;;;;;2.30;1.30;;;;;;;13.22;38.23;99939.69;5138041;27;20062;-71
2022/02/25 11:20:21;;;;;;;1.80;0.98;;;;;;;13.36;37.19;99938.69;5136493;27;20061;-71
2022/02/25 11:22:54;;;;;;;1.63;1.00;;;;;;;13.75;36.93;99934.09;5137663;27;20043;-72
2022/02/25 11:25:24;;;;;;;0.98;0.68;;;;;;;12.97;37.31;99932.97;5135412;27;20051;-71
2022/02/25 11:27:53;;;;;;;1.10;0.70;;;;;;;11.87;38.48;99955.63;5137220;27;20039;-72
2022/02/25 11:30:26;;;;;;;1.05;0.80;;;;;;;10.74;40.39;99941.03;5137215;27;20043;-72
2022/02/25 11:33:03;;;;;;;1.67;1.02;;;;;;;10.27;41.53;99957.03;5136384;27;20113;-72
2022/02/25 11:35:33;;;;;;;1.73;1.10;;;;;;;8.96;41.18;99807.50;5137087;27;20046;-71
2022/02/25 11:38:05;;;;;;;1.63;0.80;;;;;;;9.66;41.48;99953.19;5137139;27;20140;-72
2022/02/25 11:41:02;;;;;;;3.15;1.70;;;;;;;9.62;42.52;99951.47;5137048;27;20162;-71
2022/02/25 11:43:39;;;;;;;4.47;2.40;;;;;;;10.80;41.93;99949.56;5137293;27;20039;-72
2022/02/25 11:46:11;;;;;;;3.75;2.60;;;;;;;11.75;39.76;99942.84;5131283;27;20067;-72
2022/02/25 11:48:47;;;;;;;1.42;1.00;;;;;;;12.50;38.75;99943.47;5137380;27;20376;-72
2022/02/25 11:51:30;;;;;;;2.08;1.10;;;;;;;13.10;37.52;99943.16;5136765;27;20075;-71
2022/02/25 11:54:19;;;;;;;2.85;1.25;;;;;;;12.56;37.67;99940.88;5137037;27;20507;-72
2022/02/25 11:57:20;;;;;;;2.95;1.67;;;;;;;11.68;38.36;99915.56;5136596;27;20050;-71
2022/02/25 12:00:11;;;;;;;1.58;1.00;;;;;;;11.48;39.03;99936.84;5137262;27;20044;-71